sensor_id;sensor_type;location;lat;lon;timestamp;pressure;altitude;pressure_sealevel;temperature;humidity
55590;BME280;41452;42.780;23.116;2023-02-17T00:00:10;95249.81;;;1.02;83.94
55590;BME280;41452;42.780;23.116;2023-02-17T00:02:36;95248.25;;;1.09;83.61
55590;BME280;41452;42.780;23.116;2023-02-17T00:05:03;95244.03;;;1.08;82.82
55590;BME280;41452;42.780;23.116;2023-02-17T00:07:30;95247.59;;;1.07;82.86
55590;BME280;41452;42.780;23.116;2023-02-17T00:09:57;95240.50;;;1.09;83.14
55590;BME280;41452;42.780;23.116;2023-02-17T00:12:22;95247.22;;;1.02;83.54
55590;BME280;41452;42.780;23.116;2023-02-17T00:14:47;95241.53;;;0.99;83.67
55590;BME280;41452;42.780;23.116;2023-02-17T00:17:13;95233.63;;;1.00;83.80
55590;BME280;41452;42.780;23.116;2023-02-17T00:19:38;95139.72;;;0.37;84.14
55590;BME280;41452;42.780;23.116;2023-02-17T00:22:04;95234.31;;;1.02;84.30
55590;BME280;41452;42.780;23.116;2023-02-17T00:24:30;95217.81;;;1.03;84.45
55590;BME280;41452;42.780;23.116;2023-02-17T00:26:56;95225.28;;;1.06;84.46
55590;BME280;41452;42.780;23.116;2023-02-17T00:29:21;95151.88;;;0.63;84.48
55590;BME280;41452;42.780;23.116;2023-02-17T00:31:47;95159.06;;;0.69;84.41
55590;BME280;41452;42.780;23.116;2023-02-17T00:34:13;95129.00;;;0.50;84.68
55590;BME280;41452;42.780;23.116;2023-02-17T00:36:40;95215.25;;;1.03;85.12
55590;BME280;41452;42.780;23.116;2023-02-17T00:39:06;95223.06;;;1.11;84.74
55590;BME280;41452;42.780;23.116;2023-02-17T00:41:31;95227.63;;;1.18;84.60
55590;BME280;41452;42.780;23.116;2023-02-17T00:43:58;95220.16;;;1.14;84.93
55590;BME280;41452;42.780;23.116;2023-02-17T00:46:24;95206.56;;;1.12;84.84
55590;BME280;41452;42.780;23.116;2023-02-17T00:48:51;95213.69;;;1.10;85.01
55590;BME280;41452;42.780;23.116;2023-02-17T00:51:17;95204.00;;;1.12;85.07
55590;BME280;41452;42.780;23.116;2023-02-17T00:53:43;95215.34;;;1.20;84.43
55590;BME280;41452;42.780;23.116;2023-02-17T00:56:09;95216.16;;;1.20;83.88
55590;BME280;41452;42.780;23.116;2023-02-17T00:58:35;95209.56;;;1.26;83.18
55590;BME280;41452;42.780;23.116;2023-02-17T01:01:00;95212.81;;;1.28;82.91
55590;BME280;41452;42.780;23.116;2023-02-17T01:03:26;95208.75;;;1.25;83.10
55590;BME280;41452;42.780;23.116;2023-02-17T01:05:52;95198.31;;;1.09;83.01
55590;BME280;41452;42.780;23.116;2023-02-17T01:08:19;95151.91;;;0.89;82.95
55590;BME280;41452;42.780;23.116;2023-02-17T01:10:46;95205.66;;;1.22;83.16
55590;BME280;41452;42.780;23.116;2023-02-17T01:13:13;95185.38;;;1.09;83.31
55590;BME280;41452;42.780;23.116;2023-02-17T01:15:41;95201.75;;;1.18;83.31
55590;BME280;41452;42.780;23.116;2023-02-17T01:18:07;95206.97;;;1.26;83.11
55590;BME280;41452;42.780;23.116;2023-02-17T01:20:36;95207.50;;;1.29;82.78
55590;BME280;41452;42.780;23.116;2023-02-17T01:23:03;95208.09;;;1.23;83.11
55590;BME280;41452;42.780;23.116;2023-02-17T01:25:28;95206.97;;;1.26;83.36
55590;BME280;41452;42.780;23.116;2023-02-17T01:27:54;95207.97;;;1.25;83.02
55590;BME280;41452;42.780;23.116;2023-02-17T01:30:20;95203.16;;;1.30;83.18
55590;BME280;41452;42.780;23.116;2023-02-17T01:32:45;95203.81;;;1.32;82.33
55590;BME280;41452;42.780;23.116;2023-02-17T01:35:10;95176.69;;;1.18;82.53
55590;BME280;41452;42.780;23.116;2023-02-17T01:37:36;95196.78;;;1.24;82.47
55590;BME280;41452;42.780;23.116;2023-02-17T01:40:02;95206.53;;;1.30;82.96
55590;BME280;41452;42.780;23.116;2023-02-17T01:42:28;95202.47;;;1.28;83.05
55590;BME280;41452;42.780;23.116;2023-02-17T01:47:45;95199.94;;;1.36;82.62
55590;BME280;41452;42.780;23.116;2023-02-17T01:50:13;95114.19;;;0.79;83.00
55590;BME280;41452;42.780;23.116;2023-02-17T01:52:40;95194.09;;;1.34;83.31
55590;BME280;41452;42.780;23.116;2023-02-17T01:55:10;95201.44;;;1.39;82.90
55590;BME280;41452;42.780;23.116;2023-02-17T01:57:40;95191.22;;;1.37;83.33
55590;BME280;41452;42.780;23.116;2023-02-17T02:00:09;95198.63;;;1.32;83.39
55590;BME280;41452;42.780;23.116;2023-02-17T02:02:36;95191.31;;;1.27;83.63
55590;BME280;41452;42.780;23.116;2023-02-17T02:05:02;95186.28;;;1.26;83.70
55590;BME280;41452;42.780;23.116;2023-02-17T02:07:33;95191.44;;;1.26;83.38
55590;BME280;41452;42.780;23.116;2023-02-17T02:09:59;95187.56;;;1.22;83.86
55590;BME280;41452;42.780;23.116;2023-02-17T02:12:29;95145.03;;;0.98;83.99
55590;BME280;41452;42.780;23.116;2023-02-17T02:14:58;95143.09;;;1.00;83.34
55590;BME280;41452;42.780;23.116;2023-02-17T02:20:17;95186.34;;;1.34;83.19
55590;BME280;41452;42.780;23.116;2023-02-17T02:31:17;95181.44;;;1.23;83.47
55590;BME280;41452;42.780;23.116;2023-02-17T02:33:56;95188.88;;;1.26;83.41
55590;BME280;41452;42.780;23.116;2023-02-17T02:36:40;95186.28;;;1.26;83.21
55590;BME280;41452;42.780;23.116;2023-02-17T02:39:09;95186.94;;;1.28;83.06
55590;BME280;41452;42.780;23.116;2023-02-17T02:41:54;95141.78;;;0.96;83.02
55590;BME280;41452;42.780;23.116;2023-02-17T02:44:21;95184.31;;;1.20;83.30
55590;BME280;41452;42.780;23.116;2023-02-17T02:47:00;95186.75;;;1.21;83.46
55590;BME280;41452;42.780;23.116;2023-02-17T02:49:28;95185.47;;;1.25;82.94
55590;BME280;41452;42.780;23.116;2023-02-17T02:52:01;95195.69;;;1.27;82.94
55590;BME280;41452;42.780;23.116;2023-02-17T02:59:43;95204.47;;;1.34;82.50
55590;BME280;41452;42.780;23.116;2023-02-17T03:05:04;95201.88;;;1.34;81.75
55590;BME280;41452;42.780;23.116;2023-02-17T03:10:09;95206.31;;;1.24;81.99
55590;BME280;41452;42.780;23.116;2023-02-17T03:12:38;95207.13;;;1.24;82.15
55590;BME280;41452;42.780;23.116;2023-02-17T03:15:11;95207.34;;;1.31;82.07
55590;BME280;41452;42.780;23.116;2023-02-17T03:17:38;95203.66;;;1.33;82.09
55590;BME280;41452;42.780;23.116;2023-02-17T03:20:04;95210.44;;;1.35;82.19
55590;BME280;41452;42.780;23.116;2023-02-17T03:22:34;95211.19;;;1.27;82.68
55590;BME280;41452;42.780;23.116;2023-02-17T03:25:00;95209.66;;;1.16;83.18
55590;BME280;41452;42.780;23.116;2023-02-17T03:27:26;95203.00;;;1.13;83.02
55590;BME280;41452;42.780;23.116;2023-02-17T03:29:52;95191.34;;;1.09;82.98
55590;BME280;41452;42.780;23.116;2023-02-17T03:32:18;95161.47;;;0.89;83.64
55590;BME280;41452;42.780;23.116;2023-02-17T03:34:44;95191.50;;;1.08;83.55
55590;BME280;41452;42.780;23.116;2023-02-17T03:37:09;95188.47;;;1.12;83.73
55590;BME280;41452;42.780;23.116;2023-02-17T03:39:34;95185.22;;;1.10;83.24
55590;BME280;41452;42.780;23.116;2023-02-17T03:42:01;95192.00;;;1.11;83.53
55590;BME280;41452;42.780;23.116;2023-02-17T03:44:27;95187.34;;;1.15;82.87
55590;BME280;41452;42.780;23.116;2023-02-17T03:46:52;95186.47;;;1.06;83.20
55590;BME280;41452;42.780;23.116;2023-02-17T03:49:18;95186.03;;;1.11;83.14
55590;BME280;41452;42.780;23.116;2023-02-17T03:51:43;95193.03;;;1.19;83.04
55590;BME280;41452;42.780;23.116;2023-02-17T03:54:09;95197.91;;;1.22;83.23
55590;BME280;41452;42.780;23.116;2023-02-17T03:56:34;95200.84;;;1.27;82.56
55590;BME280;41452;42.780;23.116;2023-02-17T03:58:59;95201.81;;;1.26;82.28
55590;BME280;41452;42.780;23.116;2023-02-17T04:01:25;95209.56;;;1.26;82.11
55590;BME280;41452;42.780;23.116;2023-02-17T04:03:50;95207.34;;;1.31;81.68
55590;BME280;41452;42.780;23.116;2023-02-17T04:06:16;95203.16;;;1.30;81.68
55590;BME280;41452;42.780;23.116;2023-02-17T04:08:41;95168.06;;;1.09;81.55
55590;BME280;41452;42.780;23.116;2023-02-17T04:11:09;95206.69;;;1.29;81.46
55590;BME280;41452;42.780;23.116;2023-02-17T04:13:35;95200.84;;;1.27;81.43
55590;BME280;41452;42.780;23.116;2023-02-17T04:16:01;95208.63;;;1.27;81.79
55590;BME280;41452;42.780;23.116;2023-02-17T04:18:29;95204.38;;;1.26;81.47
55590;BME280;41452;42.780;23.116;2023-02-17T04:20:54;95206.31;;;1.24;81.58
55590;BME280;41452;42.780;23.116;2023-02-17T04:23:20;95201.91;;;1.16;82.06
55590;BME280;41452;42.780;23.116;2023-02-17T04:25:46;95216.47;;;1.17;82.01
55590;BME280;41452;42.780;23.116;2023-02-17T04:28:12;95209.16;;;1.12;82.03
55590;BME280;41452;42.780;23.116;2023-02-17T04:30:38;95209.47;;;1.09;82.54
55590;BME280;41452;42.780;23.116;2023-02-17T04:33:04;95206.28;;;0.98;82.55
55590;BME280;41452;42.780;23.116;2023-02-17T04:35:29;95199.78;;;0.93;83.43
55590;BME280;41452;42.780;23.116;2023-02-17T04:37:55;95166.88;;;0.60;83.72
55590;BME280;41452;42.780;23.116;2023-02-17T04:40:20;95219.84;;;0.73;84.64
55590;BME280;41452;42.780;23.116;2023-02-17T04:42:46;95221.81;;;0.80;85.30
55590;BME280;41452;42.780;23.116;2023-02-17T04:45:12;95219.44;;;0.86;85.01
55590;BME280;41452;42.780;23.116;2023-02-17T04:47:38;95215.47;;;0.74;85.32
55590;BME280;41452;42.780;23.116;2023-02-17T04:50:04;95221.97;;;0.78;85.60
55590;BME280;41452;42.780;23.116;2023-02-17T04:52:31;95209.78;;;0.70;85.88
55590;BME280;41452;42.780;23.116;2023-02-17T04:54:56;95213.63;;;0.66;85.79
55590;BME280;41452;42.780;23.116;2023-02-17T04:57:21;95208.31;;;0.68;86.11
55590;BME280;41452;42.780;23.116;2023-02-17T04:59:47;95202.91;;;0.61;86.67
55590;BME280;41452;42.780;23.116;2023-02-17T05:02:12;95213.91;;;0.63;86.94
55590;BME280;41452;42.780;23.116;2023-02-17T05:04:37;95112.97;;;0.11;87.22
55590;BME280;41452;42.780;23.116;2023-02-17T05:07:03;95197.38;;;0.56;87.30
55590;BME280;41452;42.780;23.116;2023-02-17T05:09:28;95203.88;;;0.60;86.97
55590;BME280;41452;42.780;23.116;2023-02-17T05:11:54;95212.00;;;0.65;86.63
55590;BME280;41452;42.780;23.116;2023-02-17T05:14:19;95219.47;;;0.68;87.00
55590;BME280;41452;42.780;23.116;2023-02-17T05:16:45;95142.94;;;0.22;86.65
55590;BME280;41452;42.780;23.116;2023-02-17T05:19:10;95217.91;;;0.75;86.02
55590;BME280;41452;42.780;23.116;2023-02-17T05:21:36;95181.94;;;0.46;86.01
55590;BME280;41452;42.780;23.116;2023-02-17T05:24:01;95233.13;;;0.79;85.88
55590;BME280;41452;42.780;23.116;2023-02-17T05:26:26;95231.88;;;0.83;85.49
55590;BME280;41452;42.780;23.116;2023-02-17T05:28:52;95246.94;;;0.87;85.41
55590;BME280;41452;42.780;23.116;2023-02-17T05:31:17;95244.22;;;0.89;85.75
55590;BME280;41452;42.780;23.116;2023-02-17T05:33:43;95176.69;;;0.56;85.67
55590;BME280;41452;42.780;23.116;2023-02-17T05:36:09;95185.41;;;0.73;84.84
55590;BME280;41452;42.780;23.116;2023-02-17T05:38:36;95250.03;;;1.09;85.15
55590;BME280;41452;42.780;23.116;2023-02-17T05:41:03;95247.31;;;1.10;85.58
55590;BME280;41452;42.780;23.116;2023-02-17T05:43:28;95251.72;;;1.18;85.60
55590;BME280;41452;42.780;23.116;2023-02-17T05:45:54;95255.38;;;1.07;86.27
55590;BME280;41452;42.780;23.116;2023-02-17T05:48:19;95263.34;;;1.14;86.50
55590;BME280;41452;42.780;23.116;2023-02-17T05:50:45;95259.50;;;1.18;86.92
55590;BME280;41452;42.780;23.116;2023-02-17T05:53:10;95259.63;;;1.17;87.19
55590;BME280;41452;42.780;23.116;2023-02-17T05:55:36;95265.19;;;1.22;87.01
55590;BME280;41452;42.780;23.116;2023-02-17T05:58:01;95202.84;;;0.89;86.60
55590;BME280;41452;42.780;23.116;2023-02-17T06:00:27;95269.16;;;1.34;86.81
55590;BME280;41452;42.780;23.116;2023-02-17T06:02:53;95268.72;;;1.39;86.68
55590;BME280;41452;42.780;23.116;2023-02-17T06:05:18;95273.13;;;1.46;86.61
55590;BME280;41452;42.780;23.116;2023-02-17T06:07:43;95228.03;;;1.31;85.71
55590;BME280;41452;42.780;23.116;2023-02-17T06:10:09;95221.25;;;1.30;85.09
55590;BME280;41452;42.780;23.116;2023-02-17T06:12:35;95264.19;;;1.67;84.52
55590;BME280;41452;42.780;23.116;2023-02-17T06:15:00;95280.16;;;1.80;84.24
55590;BME280;41452;42.780;23.116;2023-02-17T06:17:26;95287.16;;;1.88;83.82
55590;BME280;41452;42.780;23.116;2023-02-17T06:19:51;95222.38;;;1.54;83.19
55590;BME280;41452;42.780;23.116;2023-02-17T06:22:16;95275.97;;;1.87;82.60
55590;BME280;41452;42.780;23.116;2023-02-17T06:24:42;95294.81;;;1.98;82.94
55590;BME280;41452;42.780;23.116;2023-02-17T06:27:07;95291.59;;;2.04;82.81
55590;BME280;41452;42.780;23.116;2023-02-17T06:29:33;95289.66;;;2.06;82.36
55590;BME280;41452;42.780;23.116;2023-02-17T06:31:58;95298.13;;;2.08;82.14
55590;BME280;41452;42.780;23.116;2023-02-17T06:34:24;95235.25;;;1.71;81.66
55590;BME280;41452;42.780;23.116;2023-02-17T06:36:49;95300.75;;;2.16;81.47
55590;BME280;41452;42.780;23.116;2023-02-17T06:39:15;95293.63;;;2.18;81.27
55590;BME280;41452;42.780;23.116;2023-02-17T06:41:40;95302.41;;;2.25;80.53
55590;BME280;41452;42.780;23.116;2023-02-17T06:44:07;95301.16;;;2.30;80.93
55590;BME280;41452;42.780;23.116;2023-02-17T06:46:32;95303.25;;;2.34;80.22
55590;BME280;41452;42.780;23.116;2023-02-17T06:48:58;95238.34;;;2.01;79.99
55590;BME280;41452;42.780;23.116;2023-02-17T06:51:24;95288.25;;;2.46;80.16
55590;BME280;41452;42.780;23.116;2023-02-17T06:53:49;95298.97;;;2.59;80.17
55590;BME280;41452;42.780;23.116;2023-02-17T06:56:15;95226.59;;;2.23;80.33
55590;BME280;41452;42.780;23.116;2023-02-17T06:58:40;95303.09;;;2.70;79.76
55590;BME280;41452;42.780;23.116;2023-02-17T07:01:05;95305.88;;;2.85;79.68
55590;BME280;41452;42.780;23.116;2023-02-17T07:03:33;95294.00;;;2.82;79.19
55590;BME280;41452;42.780;23.116;2023-02-17T07:05:59;95295.66;;;3.00;79.17
55590;BME280;41452;42.780;23.116;2023-02-17T07:08:24;95296.19;;;3.12;78.47
55590;BME280;41452;42.780;23.116;2023-02-17T07:10:50;95246.22;;;2.93;77.56
55590;BME280;41452;42.780;23.116;2023-02-17T07:13:15;95251.72;;;3.23;76.14
55590;BME280;41452;42.780;23.116;2023-02-17T07:15:41;95288.56;;;3.59;75.51
55590;BME280;41452;42.780;23.116;2023-02-17T07:18:06;95293.91;;;3.74;74.41
55590;BME280;41452;42.780;23.116;2023-02-17T07:20:32;95290.16;;;3.93;74.25
55590;BME280;41452;42.780;23.116;2023-02-17T07:22:59;95296.47;;;4.07;74.10
55590;BME280;41452;42.780;23.116;2023-02-17T07:25:25;95296.72;;;4.29;73.76
55590;BME280;41452;42.780;23.116;2023-02-17T07:27:50;95301.88;;;4.37;72.85
55590;BME280;41452;42.780;23.116;2023-02-17T07:30:16;95305.94;;;4.48;72.20
55590;BME280;41452;42.780;23.116;2023-02-17T07:32:42;95240.06;;;4.16;71.16
55590;BME280;41452;42.780;23.116;2023-02-17T07:35:07;95300.47;;;4.66;70.95
55590;BME280;41452;42.780;23.116;2023-02-17T07:37:33;95306.09;;;4.78;70.83
55590;BME280;41452;42.780;23.116;2023-02-17T07:39:59;95305.50;;;4.99;69.45
55590;BME280;41452;42.780;23.116;2023-02-17T07:42:26;95246.41;;;4.76;68.45
55590;BME280;41452;42.780;23.116;2023-02-17T07:44:51;95244.41;;;4.86;67.35
55590;BME280;41452;42.780;23.116;2023-02-17T07:47:17;95301.19;;;5.37;67.15
55590;BME280;41452;42.780;23.116;2023-02-17T07:49:42;95305.19;;;5.48;65.48
55590;BME280;41452;42.780;23.116;2023-02-17T07:52:07;95296.75;;;5.61;64.54
55590;BME280;41452;42.780;23.116;2023-02-17T07:54:33;95311.47;;;5.77;65.08
55590;BME280;41452;42.780;23.116;2023-02-17T07:56:58;95296.84;;;5.90;64.99
55590;BME280;41452;42.780;23.116;2023-02-17T07:59:24;95295.72;;;6.08;64.23
55590;BME280;41452;42.780;23.116;2023-02-17T08:01:49;95305.19;;;6.24;64.52
55590;BME280;41452;42.780;23.116;2023-02-17T08:04:15;95257.47;;;6.00;63.55
55590;BME280;41452;42.780;23.116;2023-02-17T08:06:40;95301.84;;;6.45;62.71
55590;BME280;41452;42.780;23.116;2023-02-17T08:09:06;95313.63;;;6.56;61.89
55590;BME280;41452;42.780;23.116;2023-02-17T08:11:49;95304.41;;;6.75;62.16
55590;BME280;41452;42.780;23.116;2023-02-17T08:14:33;95298.91;;;6.84;61.85
55590;BME280;41452;42.780;23.116;2023-02-17T08:16:59;95306.44;;;6.94;60.52
55590;BME280;41452;42.780;23.116;2023-02-17T08:19:24;95313.66;;;7.07;59.01
55590;BME280;41452;42.780;23.116;2023-02-17T08:21:51;95307.56;;;7.21;59.44
55590;BME280;41452;42.780;23.116;2023-02-17T08:24:17;95294.97;;;7.32;57.42
55590;BME280;41452;42.780;23.116;2023-02-17T08:26:44;95230.34;;;6.97;58.28
55590;BME280;41452;42.780;23.116;2023-02-17T08:29:10;95251.06;;;7.20;58.17
55590;BME280;41452;42.780;23.116;2023-02-17T08:31:36;95307.81;;;7.70;56.51
55590;BME280;41452;42.780;23.116;2023-02-17T08:34:07;95304.00;;;7.72;57.02
55590;BME280;41452;42.780;23.116;2023-02-17T08:36:33;95304.44;;;7.76;54.51
55590;BME280;41452;42.780;23.116;2023-02-17T08:38:58;95303.69;;;7.82;55.99
55590;BME280;41452;42.780;23.116;2023-02-17T08:41:32;95298.13;;;7.92;56.27
55590;BME280;41452;42.780;23.116;2023-02-17T08:44:00;95296.53;;;7.97;55.98
55590;BME280;41452;42.780;23.116;2023-02-17T08:46:27;95292.16;;;8.05;54.81
55590;BME280;41452;42.780;23.116;2023-02-17T08:48:53;95303.72;;;8.17;54.34
55590;BME280;41452;42.780;23.116;2023-02-17T08:51:20;95286.41;;;8.16;54.74
55590;BME280;41452;42.780;23.116;2023-02-17T08:53:54;95302.19;;;8.29;53.63
55590;BME280;41452;42.780;23.116;2023-02-17T08:56:21;95304.94;;;8.43;52.51
55590;BME280;41452;42.780;23.116;2023-02-17T08:58:47;95310.16;;;8.43;54.15
55590;BME280;41452;42.780;23.116;2023-02-17T09:01:13;95304.97;;;8.49;54.20
55590;BME280;41452;42.780;23.116;2023-02-17T09:03:39;95304.75;;;8.51;54.32
55590;BME280;41452;42.780;23.116;2023-02-17T09:06:06;95305.78;;;8.50;52.74
55590;BME280;41452;42.780;23.116;2023-02-17T09:08:33;95301.38;;;8.57;52.91
55590;BME280;41452;42.780;23.116;2023-02-17T09:10:58;95275.34;;;8.49;52.72
55590;BME280;41452;42.780;23.116;2023-02-17T09:13:24;95306.69;;;8.77;52.83
55590;BME280;41452;42.780;23.116;2023-02-17T09:15:51;95303.09;;;8.78;52.79
55590;BME280;41452;42.780;23.116;2023-02-17T09:18:18;95294.63;;;8.83;53.97
55590;BME280;41452;42.780;23.116;2023-02-17T09:20:45;95300.53;;;8.98;51.80
55590;BME280;41452;42.780;23.116;2023-02-17T09:23:10;95299.13;;;9.02;51.94
55590;BME280;41452;42.780;23.116;2023-02-17T09:25:36;95298.97;;;9.10;51.73
55590;BME280;41452;42.780;23.116;2023-02-17T09:28:01;95295.34;;;9.18;52.13
55590;BME280;41452;42.780;23.116;2023-02-17T09:30:28;95295.50;;;9.03;50.77
55590;BME280;41452;42.780;23.116;2023-02-17T09:32:54;95291.94;;;9.18;50.35
55590;BME280;41452;42.780;23.116;2023-02-17T09:35:19;95284.72;;;9.33;49.43
55590;BME280;41452;42.780;23.116;2023-02-17T09:37:45;95294.38;;;9.39;49.10
55590;BME280;41452;42.780;23.116;2023-02-17T09:40:18;95296.00;;;9.54;49.46
55590;BME280;41452;42.780;23.116;2023-02-17T09:42:44;95242.53;;;9.21;48.37
55590;BME280;41452;42.780;23.116;2023-02-17T09:45:18;95296.03;;;9.60;47.82
55590;BME280;41452;42.780;23.116;2023-02-17T09:47:55;95292.19;;;9.63;48.89
55590;BME280;41452;42.780;23.116;2023-02-17T09:50:44;95295.44;;;9.71;47.60
55590;BME280;41452;42.780;23.116;2023-02-17T09:55:54;95301.31;;;9.74;46.10
55590;BME280;41452;42.780;23.116;2023-02-17T09:58:36;95292.19;;;9.69;46.92
55590;BME280;41452;42.780;23.116;2023-02-17T10:01:06;95289.97;;;9.73;47.82
55590;BME280;41452;42.780;23.116;2023-02-17T10:03:45;95283.94;;;9.79;47.79
55590;BME280;41452;42.780;23.116;2023-02-17T10:06:47;95282.53;;;9.90;47.64
55590;BME280;41452;42.780;23.116;2023-02-17T10:09:22;95269.81;;;9.94;47.12
55590;BME280;41452;42.780;23.116;2023-02-17T10:12:17;95274.44;;;10.12;47.23
55590;BME280;41452;42.780;23.116;2023-02-17T10:14:50;95264.94;;;10.11;46.45
55590;BME280;41452;42.780;23.116;2023-02-17T10:17:22;95271.41;;;10.15;45.67
55590;BME280;41452;42.780;23.116;2023-02-17T10:19:55;95270.56;;;10.14;45.80
55590;BME280;41452;42.780;23.116;2023-02-17T10:22:23;95267.75;;;10.16;46.98
55590;BME280;41452;42.780;23.116;2023-02-17T10:24:50;95272.59;;;10.25;46.24
55590;BME280;41452;42.780;23.116;2023-02-17T10:32:25;95270.38;;;10.36;44.27
55590;BME280;41452;42.780;23.116;2023-02-17T10:37:29;95259.25;;;10.40;45.32
55590;BME280;41452;42.780;23.116;2023-02-17T10:39:57;95261.47;;;10.37;43.02
55590;BME280;41452;42.780;23.116;2023-02-17T10:42:36;95251.94;;;10.49;44.44
55590;BME280;41452;42.780;23.116;2023-02-17T10:47:37;95237.34;;;10.67;42.37
55590;BME280;41452;42.780;23.116;2023-02-17T10:50:14;95238.53;;;10.71;43.29
55590;BME280;41452;42.780;23.116;2023-02-17T10:52:41;95233.47;;;10.76;43.72
55590;BME280;41452;42.780;23.116;2023-02-17T10:55:22;95238.91;;;10.81;43.65
55590;BME280;41452;42.780;23.116;2023-02-17T10:57:53;95230.59;;;10.84;43.53
55590;BME280;41452;42.780;23.116;2023-02-17T11:00:23;95217.03;;;10.87;41.95
55590;BME280;41452;42.780;23.116;2023-02-17T11:02:49;95225.44;;;11.02;41.03
55590;BME280;41452;42.780;23.116;2023-02-17T11:05:34;95223.00;;;11.08;40.81
55590;BME280;41452;42.780;23.116;2023-02-17T11:12:56;95225.09;;;11.24;41.27
55590;BME280;41452;42.780;23.116;2023-02-17T11:15:26;95225.97;;;11.18;40.86
55590;BME280;41452;42.780;23.116;2023-02-17T11:17:53;95211.38;;;11.22;40.52
55590;BME280;41452;42.780;23.116;2023-02-17T11:22:47;95217.56;;;11.34;39.62
55590;BME280;41452;42.780;23.116;2023-02-17T11:25:25;95213.22;;;11.21;41.03
55590;BME280;41452;42.780;23.116;2023-02-17T11:28:12;95215.91;;;11.40;41.35
55590;BME280;41452;42.780;23.116;2023-02-17T11:30:39;95213.84;;;11.42;39.49
55590;BME280;41452;42.780;23.116;2023-02-17T11:33:13;95177.56;;;11.26;39.86
55590;BME280;41452;42.780;23.116;2023-02-17T11:38:18;95202.44;;;11.55;40.22
55590;BME280;41452;42.780;23.116;2023-02-17T11:43:16;95171.78;;;11.42;41.49
55590;BME280;41452;42.780;23.116;2023-02-17T11:46:01;95206.00;;;11.67;40.06
55590;BME280;41452;42.780;23.116;2023-02-17T11:56:46;95191.22;;;11.66;40.05
55590;BME280;41452;42.780;23.116;2023-02-17T11:59:32;95185.03;;;11.54;38.59
55590;BME280;41452;42.780;23.116;2023-02-17T12:28:57;95142.38;;;12.14;39.23
55590;BME280;41452;42.780;23.116;2023-02-17T12:34:22;95140.25;;;12.23;39.24
55590;BME280;41452;42.780;23.116;2023-02-17T12:36:50;95078.81;;;11.92;38.05
55590;BME280;41452;42.780;23.116;2023-02-17T12:39:46;95131.91;;;12.26;38.05
55590;BME280;41452;42.780;23.116;2023-02-17T12:42:14;95132.66;;;12.33;38.30
55590;BME280;41452;42.780;23.116;2023-02-17T12:44:45;95125.81;;;12.44;39.77
55590;BME280;41452;42.780;23.116;2023-02-17T12:49:56;95095.63;;;12.28;39.13
55590;BME280;41452;42.780;23.116;2023-02-17T12:52:30;95114.59;;;12.48;37.39
55590;BME280;41452;42.780;23.116;2023-02-17T12:54:57;95109.59;;;12.59;38.07
55590;BME280;41452;42.780;23.116;2023-02-17T12:57:29;95109.38;;;12.60;38.18
55590;BME280;41452;42.780;23.116;2023-02-17T12:59:57;95110.31;;;12.66;36.25
55590;BME280;41452;42.780;23.116;2023-02-17T13:02:25;95062.69;;;12.37;36.67
55590;BME280;41452;42.780;23.116;2023-02-17T13:05:01;95104.81;;;12.67;36.60
55590;BME280;41452;42.780;23.116;2023-02-17T13:07:51;95111.34;;;12.65;37.86
55590;BME280;41452;42.780;23.116;2023-02-17T13:10:33;95075.88;;;12.18;38.39
55590;BME280;41452;42.780;23.116;2023-02-17T13:13:24;95102.28;;;12.61;38.92
55590;BME280;41452;42.780;23.116;2023-02-17T13:18:34;95107.50;;;12.79;36.37
55590;BME280;41452;42.780;23.116;2023-02-17T13:23:42;95111.72;;;12.80;35.96
55590;BME280;41452;42.780;23.116;2023-02-17T13:26:24;95110.81;;;12.74;35.56
55590;BME280;41452;42.780;23.116;2023-02-17T13:28:51;95088.41;;;12.53;35.62
55590;BME280;41452;42.780;23.116;2023-02-17T13:31:20;95101.25;;;12.62;36.42
55590;BME280;41452;42.780;23.116;2023-02-17T13:33:51;95104.03;;;12.67;37.51
55590;BME280;41452;42.780;23.116;2023-02-17T13:36:37;95095.84;;;12.57;36.90
55590;BME280;41452;42.780;23.116;2023-02-17T13:39:48;95095.53;;;12.65;37.67
55590;BME280;41452;42.780;23.116;2023-02-17T13:41:49;95094.81;;;12.58;37.39
55590;BME280;41452;42.780;23.116;2023-02-17T13:44:37;95096.56;;;12.64;37.56
55590;BME280;41452;42.780;23.116;2023-02-17T13:47:15;95100.22;;;12.63;36.64
55590;BME280;41452;42.780;23.116;2023-02-17T13:49:51;95091.34;;;12.45;35.80
55590;BME280;41452;42.780;23.116;2023-02-17T13:52:20;95110.97;;;12.61;37.37
55590;BME280;41452;42.780;23.116;2023-02-17T13:54:54;95109.31;;;12.67;37.24
55590;BME280;41452;42.780;23.116;2023-02-17T13:57:33;95111.94;;;12.67;37.12
55590;BME280;41452;42.780;23.116;2023-02-17T14:03:05;95115.53;;;12.54;38.42
55590;BME280;41452;42.780;23.116;2023-02-17T14:05:38;95117.59;;;12.52;37.92
55590;BME280;41452;42.780;23.116;2023-02-17T14:08:13;95120.00;;;12.53;38.61
55590;BME280;41452;42.780;23.116;2023-02-17T14:10:41;95117.16;;;12.55;38.38
55590;BME280;41452;42.780;23.116;2023-02-17T14:13:10;95119.56;;;12.57;38.73
55590;BME280;41452;42.780;23.116;2023-02-17T14:15:37;95108.47;;;12.54;38.83
55590;BME280;41452;42.780;23.116;2023-02-17T14:18:13;95121.84;;;12.53;38.66
55590;BME280;41452;42.780;23.116;2023-02-17T14:20:39;95125.00;;;12.43;38.53
55590;BME280;41452;42.780;23.116;2023-02-17T14:23:10;95125.91;;;12.37;36.86
55590;BME280;41452;42.780;23.116;2023-02-17T14:25:40;95125.91;;;12.37;38.04
55590;BME280;41452;42.780;23.116;2023-02-17T14:28:23;95118.72;;;12.26;38.54
55590;BME280;41452;42.780;23.116;2023-02-17T14:30:50;95110.63;;;12.09;39.44
55590;BME280;41452;42.780;23.116;2023-02-17T14:33:17;95117.16;;;12.06;38.62
55590;BME280;41452;42.780;23.116;2023-02-17T14:35:58;95110.78;;;11.95;38.87
55590;BME280;41452;42.780;23.116;2023-02-17T14:38:32;95106.84;;;12.05;39.53
55590;BME280;41452;42.780;23.116;2023-02-17T14:41:02;95104.44;;;12.03;39.43
55590;BME280;41452;42.780;23.116;2023-02-17T14:43:28;95103.75;;;12.08;38.67